sensor_id;sensor_type;location;lat;lon;timestamp;temperature;humidity
35395;DHT22;21500;45.308;9.488;2023-07-13T05:10:47;22.80;99.90
35395;DHT22;21500;45.308;9.488;2023-07-13T05:13:13;22.70;99.90
35395;DHT22;21500;45.308;9.488;2023-07-13T05:15:39;22.70;99.90
35395;DHT22;21500;45.308;9.488;2023-07-13T05:18:04;22.80;99.90
35395;DHT22;21500;45.308;9.488;2023-07-13T05:20:30;22.80;99.90
35395;DHT22;21500;45.308;9.488;2023-07-13T05:22:56;22.60;99.90
35395;DHT22;21500;45.308;9.488;2023-07-13T05:25:22;22.60;99.90
35395;DHT22;21500;45.308;9.488;2023-07-13T05:27:48;22.50;99.90
35395;DHT22;21500;45.308;9.488;2023-07-13T05:30:14;22.60;99.90
35395;DHT22;21500;45.308;9.488;2023-07-13T05:32:40;22.80;99.90
35395;DHT22;21500;45.308;9.488;2023-07-13T05:35:07;23.10;99.90
35395;DHT22;21500;45.308;9.488;2023-07-13T05:37:33;22.80;99.90
35395;DHT22;21500;45.308;9.488;2023-07-13T05:39:59;22.50;99.90
35395;DHT22;21500;45.308;9.488;2023-07-13T05:42:24;22.70;99.90
35395;DHT22;21500;45.308;9.488;2023-07-13T05:44:51;22.70;99.90
35395;DHT22;21500;45.308;9.488;2023-07-13T05:47:17;22.90;99.90
35395;DHT22;21500;45.308;9.488;2023-07-13T05:49:43;23.10;99.90
35395;DHT22;21500;45.308;9.488;2023-07-13T05:52:09;23.20;99.90
35395;DHT22;21500;45.308;9.488;2023-07-13T05:54:35;23.30;99.90
35395;DHT22;21500;45.308;9.488;2023-07-13T05:57:05;23.30;99.90
35395;DHT22;21500;45.308;9.488;2023-07-13T05:59:38;23.40;99.90
35395;DHT22;21500;45.308;9.488;2023-07-13T06:02:09;23.50;99.90
35395;DHT22;21500;45.308;9.488;2023-07-13T06:04:36;23.50;99.90
35395;DHT22;21500;45.308;9.488;2023-07-13T06:07:04;23.40;99.90
35395;DHT22;21500;45.308;9.488;2023-07-13T06:09:34;23.30;99.90
35395;DHT22;21500;45.308;9.488;2023-07-13T06:12:01;23.50;99.90
35395;DHT22;21500;45.308;9.488;2023-07-13T06:14:27;23.50;99.90
35395;DHT22;21500;45.308;9.488;2023-07-13T06:16:52;23.50;99.90
35395;DHT22;21500;45.308;9.488;2023-07-13T06:19:18;23.40;99.90
35395;DHT22;21500;45.308;9.488;2023-07-13T06:21:44;23.50;99.90
35395;DHT22;21500;45.308;9.488;2023-07-13T06:24:10;23.50;99.90
35395;DHT22;21500;45.308;9.488;2023-07-13T06:26:37;23.60;99.90
35395;DHT22;21500;45.308;9.488;2023-07-13T06:29:03;23.60;99.90
35395;DHT22;21500;45.308;9.488;2023-07-13T06:31:29;23.60;99.90
35395;DHT22;21500;45.308;9.488;2023-07-13T06:33:55;23.60;99.90
35395;DHT22;21500;45.308;9.488;2023-07-13T06:36:21;23.50;99.90
35395;DHT22;21500;45.308;9.488;2023-07-13T06:38:46;23.60;99.90
35395;DHT22;21500;45.308;9.488;2023-07-13T06:41:12;23.70;99.90
35395;DHT22;21500;45.308;9.488;2023-07-13T06:43:38;23.80;99.90
35395;DHT22;21500;45.308;9.488;2023-07-13T06:46:04;23.80;99.90
35395;DHT22;21500;45.308;9.488;2023-07-13T06:48:30;24.00;99.90
35395;DHT22;21500;45.308;9.488;2023-07-13T06:50:56;24.30;99.90
35395;DHT22;21500;45.308;9.488;2023-07-13T06:53:23;24.50;99.90
35395;DHT22;21500;45.308;9.488;2023-07-13T06:55:49;24.30;99.90
35395;DHT22;21500;45.308;9.488;2023-07-13T06:58:18;24.40;99.90
35395;DHT22;21500;45.308;9.488;2023-07-13T07:00:45;24.70;99.90
35395;DHT22;21500;45.308;9.488;2023-07-13T07:03:11;25.10;99.90
35395;DHT22;21500;45.308;9.488;2023-07-13T07:05:36;25.00;99.90
35395;DHT22;21500;45.308;9.488;2023-07-13T07:08:03;25.20;99.90
35395;DHT22;21500;45.308;9.488;2023-07-13T07:10:30;25.20;99.90
35395;DHT22;21500;45.308;9.488;2023-07-13T07:12:56;25.30;99.90
35395;DHT22;21500;45.308;9.488;2023-07-13T07:15:21;25.30;99.90
35395;DHT22;21500;45.308;9.488;2023-07-13T07:17:47;25.10;99.90
35395;DHT22;21500;45.308;9.488;2023-07-13T07:20:13;25.00;99.90
35395;DHT22;21500;45.308;9.488;2023-07-13T07:22:39;25.00;99.90
35395;DHT22;21500;45.308;9.488;2023-07-13T07:25:05;25.10;99.90
35395;DHT22;21500;45.308;9.488;2023-07-13T07:27:32;25.30;99.90
35395;DHT22;21500;45.308;9.488;2023-07-13T07:29:59;25.30;99.90
35395;DHT22;21500;45.308;9.488;2023-07-13T07:32:25;25.30;99.90
35395;DHT22;21500;45.308;9.488;2023-07-13T07:34:51;25.00;99.90
35395;DHT22;21500;45.308;9.488;2023-07-13T07:37:16;24.80;99.90
35395;DHT22;21500;45.308;9.488;2023-07-13T07:39:43;24.90;99.90
35395;DHT22;21500;45.308;9.488;2023-07-13T07:42:09;24.80;99.90
35395;DHT22;21500;45.308;9.488;2023-07-13T07:44:34;24.60;99.90
35395;DHT22;21500;45.308;9.488;2023-07-13T07:47:01;24.60;99.90
35395;DHT22;21500;45.308;9.488;2023-07-13T07:49:27;24.70;99.90
35395;DHT22;21500;45.308;9.488;2023-07-13T07:51:52;24.80;99.90
35395;DHT22;21500;45.308;9.488;2023-07-13T07:54:18;24.80;99.90
35395;DHT22;21500;45.308;9.488;2023-07-13T07:56:44;24.90;99.90
35395;DHT22;21500;45.308;9.488;2023-07-13T07:59:10;24.90;99.90
35395;DHT22;21500;45.308;9.488;2023-07-13T08:01:36;24.90;99.90
35395;DHT22;21500;45.308;9.488;2023-07-13T08:04:02;24.80;99.90
35395;DHT22;21500;45.308;9.488;2023-07-13T08:06:31;24.90;99.90
35395;DHT22;21500;45.308;9.488;2023-07-13T08:08:59;25.30;99.90
35395;DHT22;21500;45.308;9.488;2023-07-13T08:11:25;25.60;99.90
35395;DHT22;21500;45.308;9.488;2023-07-13T08:13:51;25.50;99.90
35395;DHT22;21500;45.308;9.488;2023-07-13T08:16:17;25.50;99.90
35395;DHT22;21500;45.308;9.488;2023-07-13T08:18:43;25.60;99.90
35395;DHT22;21500;45.308;9.488;2023-07-13T08:21:09;25.60;99.90
35395;DHT22;21500;45.308;9.488;2023-07-13T08:23:35;25.70;99.90
35395;DHT22;21500;45.308;9.488;2023-07-13T08:26:02;25.80;99.90
35395;DHT22;21500;45.308;9.488;2023-07-13T08:28:28;25.80;99.90
35395;DHT22;21500;45.308;9.488;2023-07-13T08:30:54;25.70;99.90
35395;DHT22;21500;45.308;9.488;2023-07-13T08:33:22;25.70;99.90
35395;DHT22;21500;45.308;9.488;2023-07-13T08:35:50;25.70;99.90
35395;DHT22;21500;45.308;9.488;2023-07-13T08:38:17;25.60;99.90
35395;DHT22;21500;45.308;9.488;2023-07-13T08:40:53;25.60;99.90
35395;DHT22;21500;45.308;9.488;2023-07-13T08:43:32;25.60;99.90
35395;DHT22;21500;45.308;9.488;2023-07-13T08:46:01;25.60;99.90
35395;DHT22;21500;45.308;9.488;2023-07-13T08:48:35;25.40;99.90
35395;DHT22;21500;45.308;9.488;2023-07-13T08:53:49;25.40;99.90
35395;DHT22;21500;45.308;9.488;2023-07-13T08:56:21;25.20;99.90
35395;DHT22;21500;45.308;9.488;2023-07-13T08:58:51;25.20;99.90
35395;DHT22;21500;45.308;9.488;2023-07-13T09:01:53;25.20;99.90
35395;DHT22;21500;45.308;9.488;2023-07-13T09:04:29;25.00;99.90
35395;DHT22;21500;45.308;9.488;2023-07-13T09:10:03;24.90;99.90
35395;DHT22;21500;45.308;9.488;2023-07-13T09:13:07;24.80;99.90
35395;DHT22;21500;45.308;9.488;2023-07-13T09:15:44;24.60;99.90
35395;DHT22;21500;45.308;9.488;2023-07-13T09:18:32;24.50;99.90
35395;DHT22;21500;45.308;9.488;2023-07-13T09:23:31;24.70;99.90
35395;DHT22;21500;45.308;9.488;2023-07-13T09:26:22;24.90;99.90
35395;DHT22;21500;45.308;9.488;2023-07-13T09:28:56;24.90;99.90
35395;DHT22;21500;45.308;9.488;2023-07-13T09:31:42;24.90;99.90
35395;DHT22;21500;45.308;9.488;2023-07-13T09:34:13;24.80;99.90
35395;DHT22;21500;45.308;9.488;2023-07-13T09:36:39;25.40;99.90
35395;DHT22;21500;45.308;9.488;2023-07-13T09:39:10;25.70;99.90
35395;DHT22;21500;45.308;9.488;2023-07-13T09:41:48;25.70;99.90
35395;DHT22;21500;45.308;9.488;2023-07-13T09:44:30;25.60;99.90
35395;DHT22;21500;45.308;9.488;2023-07-13T09:46:57;25.30;99.90
35395;DHT22;21500;45.308;9.488;2023-07-13T09:49:34;25.50;99.90
35395;DHT22;21500;45.308;9.488;2023-07-13T09:52:06;25.70;99.90
35395;DHT22;21500;45.308;9.488;2023-07-13T09:54:36;25.90;99.90
35395;DHT22;21500;45.308;9.488;2023-07-13T09:57:14;26.20;99.90
35395;DHT22;21500;45.308;9.488;2023-07-13T09:59:45;26.20;99.90
35395;DHT22;21500;45.308;9.488;2023-07-13T10:02:27;26.30;99.90
35395;DHT22;21500;45.308;9.488;2023-07-13T10:05:11;26.50;99.90
35395;DHT22;21500;45.308;9.488;2023-07-13T10:07:44;26.70;99.90
35395;DHT22;21500;45.308;9.488;2023-07-13T10:10:22;26.70;99.90
35395;DHT22;21500;45.308;9.488;2023-07-13T10:12:50;26.90;99.90
35395;DHT22;21500;45.308;9.488;2023-07-13T10:15:23;27.30;99.90
35395;DHT22;21500;45.308;9.488;2023-07-13T10:17:54;26.90;99.90
35395;DHT22;21500;45.308;9.488;2023-07-13T10:20:21;27.10;99.90
35395;DHT22;21500;45.308;9.488;2023-07-13T10:23:05;27.10;99.90
35395;DHT22;21500;45.308;9.488;2023-07-13T10:25:38;27.00;99.90
35395;DHT22;21500;45.308;9.488;2023-07-13T10:28:31;27.10;99.90
35395;DHT22;21500;45.308;9.488;2023-07-13T10:31:00;26.90;99.90
35395;DHT22;21500;45.308;9.488;2023-07-13T10:33:27;27.00;99.90
35395;DHT22;21500;45.308;9.488;2023-07-13T10:36:17;27.20;99.90
35395;DHT22;21500;45.308;9.488;2023-07-13T10:38:47;27.50;99.90
35395;DHT22;21500;45.308;9.488;2023-07-13T10:41:18;27.90;99.90
35395;DHT22;21500;45.308;9.488;2023-07-13T10:43:49;27.60;99.90
35395;DHT22;21500;45.308;9.488;2023-07-13T10:46:19;27.60;99.90
35395;DHT22;21500;45.308;9.488;2023-07-13T10:48:52;27.40;99.90
35395;DHT22;21500;45.308;9.488;2023-07-13T10:51:20;27.60;99.90
35395;DHT22;21500;45.308;9.488;2023-07-13T10:53:47;27.60;99.90
35395;DHT22;21500;45.308;9.488;2023-07-13T10:56:28;27.60;99.90
35395;DHT22;21500;45.308;9.488;2023-07-13T10:59:10;27.30;99.90
35395;DHT22;21500;45.308;9.488;2023-07-13T11:04:13;27.00;99.90
35395;DHT22;21500;45.308;9.488;2023-07-13T11:06:41;27.00;99.90
35395;DHT22;21500;45.308;9.488;2023-07-13T11:09:40;27.00;99.90
35395;DHT22;21500;45.308;9.488;2023-07-13T11:12:28;26.90;99.90
35395;DHT22;21500;45.308;9.488;2023-07-13T11:22:43;26.30;99.90
35395;DHT22;21500;45.308;9.488;2023-07-13T11:25:30;26.50;99.90
35395;DHT22;21500;45.308;9.488;2023-07-13T11:30:49;26.70;99.90
35395;DHT22;21500;45.308;9.488;2023-07-13T11:36:07;27.40;99.90
35395;DHT22;21500;45.308;9.488;2023-07-13T11:38:43;27.70;99.90
35395;DHT22;21500;45.308;9.488;2023-07-13T11:41:19;27.80;99.90
35395;DHT22;21500;45.308;9.488;2023-07-13T11:43:48;27.80;99.90
35395;DHT22;21500;45.308;9.488;2023-07-13T11:46:19;27.50;99.90
35395;DHT22;21500;45.308;9.488;2023-07-13T11:48:46;27.80;99.90
35395;DHT22;21500;45.308;9.488;2023-07-13T11:51:25;28.10;99.90
35395;DHT22;21500;45.308;9.488;2023-07-13T11:53:54;28.10;99.90
35395;DHT22;21500;45.308;9.488;2023-07-13T11:56:21;28.40;99.90
35395;DHT22;21500;45.308;9.488;2023-07-13T11:58:50;28.40;99.90
35395;DHT22;21500;45.308;9.488;2023-07-13T12:01:28;28.40;99.90
35395;DHT22;21500;45.308;9.488;2023-07-13T12:04:02;28.30;99.90
35395;DHT22;21500;45.308;9.488;2023-07-13T12:06:33;28.80;99.90
35395;DHT22;21500;45.308;9.488;2023-07-13T12:09:09;29.10;99.90
35395;DHT22;21500;45.308;9.488;2023-07-13T12:11:40;28.90;99.90
35395;DHT22;21500;45.308;9.488;2023-07-13T12:14:15;29.20;99.90
35395;DHT22;21500;45.308;9.488;2023-07-13T12:16:41;29.40;99.90
35395;DHT22;21500;45.308;9.488;2023-07-13T12:19:48;29.60;99.90
35395;DHT22;21500;45.308;9.488;2023-07-13T12:22:12;29.60;99.90
35395;DHT22;21500;45.308;9.488;2023-07-13T12:24:40;29.60;99.90
35395;DHT22;21500;45.308;9.488;2023-07-13T12:27:06;29.60;99.90
35395;DHT22;21500;45.308;9.488;2023-07-13T12:29:32;29.60;99.90
35395;DHT22;21500;45.308;9.488;2023-07-13T12:31:59;28.80;99.90
35395;DHT22;21500;45.308;9.488;2023-07-13T12:34:26;28.70;99.90
35395;DHT22;21500;45.308;9.488;2023-07-13T12:36:56;29.30;99.90
35395;DHT22;21500;45.308;9.488;2023-07-13T12:44:40;30.00;99.90
35395;DHT22;21500;45.308;9.488;2023-07-13T12:47:11;29.40;99.90
35395;DHT22;21500;45.308;9.488;2023-07-13T12:49:55;29.20;99.90
35395;DHT22;21500;45.308;9.488;2023-07-13T12:52:23;29.60;99.90
35395;DHT22;21500;45.308;9.488;2023-07-13T12:54:55;29.80;99.90
35395;DHT22;21500;45.308;9.488;2023-07-13T12:57:23;30.00;99.90
35395;DHT22;21500;45.308;9.488;2023-07-13T12:59:53;29.90;99.90
35395;DHT22;21500;45.308;9.488;2023-07-13T13:02:30;29.80;99.90
35395;DHT22;21500;45.308;9.488;2023-07-13T13:04:58;30.00;99.90
35395;DHT22;21500;45.308;9.488;2023-07-13T13:07:25;30.20;99.90
35395;DHT22;21500;45.308;9.488;2023-07-13T13:09:51;30.20;99.90
35395;DHT22;21500;45.308;9.488;2023-07-13T13:12:20;30.40;99.90
35395;DHT22;21500;45.308;9.488;2023-07-13T13:14:46;30.60;99.90
35395;DHT22;21500;45.308;9.488;2023-07-13T13:17:30;30.80;99.90
35395;DHT22;21500;45.308;9.488;2023-07-13T13:19:57;30.70;99.90
35395;DHT22;21500;45.308;9.488;2023-07-13T13:22:22;30.90;99.90
35395;DHT22;21500;45.308;9.488;2023-07-13T13:24:48;30.80;99.90
35395;DHT22;21500;45.308;9.488;2023-07-13T13:27:19;30.80;99.90
35395;DHT22;21500;45.308;9.488;2023-07-13T13:30:03;30.50;99.90
35395;DHT22;21500;45.308;9.488;2023-07-13T13:32:31;30.60;99.90
35395;DHT22;21500;45.308;9.488;2023-07-13T13:34:58;30.70;99.90
35395;DHT22;21500;45.308;9.488;2023-07-13T13:37:24;30.80;99.90
35395;DHT22;21500;45.308;9.488;2023-07-13T13:39:51;30.70;99.90
35395;DHT22;21500;45.308;9.488;2023-07-13T13:42:19;30.90;99.90
35395;DHT22;21500;45.308;9.488;2023-07-13T13:44:47;30.90;99.90
35395;DHT22;21500;45.308;9.488;2023-07-13T13:47:33;30.90;99.90
35395;DHT22;21500;45.308;9.488;2023-07-13T13:50:09;31.00;99.90
35395;DHT22;21500;45.308;9.488;2023-07-13T13:52:36;30.80;99.90
35395;DHT22;21500;45.308;9.488;2023-07-13T13:55:01;30.70;99.90
35395;DHT22;21500;45.308;9.488;2023-07-13T13:57:27;30.70;99.90
35395;DHT22;21500;45.308;9.488;2023-07-13T13:59:54;30.90;99.90
35395;DHT22;21500;45.308;9.488;2023-07-13T14:02:24;31.00;99.90
35395;DHT22;21500;45.308;9.488;2023-07-13T14:04:58;30.80;99.90
35395;DHT22;21500;45.308;9.488;2023-07-13T14:07:25;30.70;99.90
35395;DHT22;21500;45.308;9.488;2023-07-13T14:09:54;30.60;99.90
35395;DHT22;21500;45.308;9.488;2023-07-13T14:12:20;30.70;99.90
35395;DHT22;21500;45.308;9.488;2023-07-13T14:14:46;31.00;99.90
35395;DHT22;21500;45.308;9.488;2023-07-13T14:17:23;30.90;99.90
35395;DHT22;21500;45.308;9.488;2023-07-13T14:19:51;31.10;99.90
35395;DHT22;21500;45.308;9.488;2023-07-13T14:22:23;31.10;99.90
35395;DHT22;21500;45.308;9.488;2023-07-13T14:24:51;31.10;99.90
35395;DHT22;21500;45.308;9.488;2023-07-13T14:27:17;31.10;99.90
35395;DHT22;21500;45.308;9.488;2023-07-13T14:29:43;31.10;99.90
35395;DHT22;21500;45.308;9.488;2023-07-13T14:32:12;30.90;99.90
35395;DHT22;21500;45.308;9.488;2023-07-13T14:34:39;31.20;99.90
35395;DHT22;21500;45.308;9.488;2023-07-13T14:37:15;31.20;99.90
35395;DHT22;21500;45.308;9.488;2023-07-13T14:39:44;31.10;99.90
35395;DHT22;21500;45.308;9.488;2023-07-13T14:42:13;31.00;99.90
35395;DHT22;21500;45.308;9.488;2023-07-13T14:44:49;31.10;99.90
35395;DHT22;21500;45.308;9.488;2023-07-13T14:47:18;31.30;99.90
35395;DHT22;21500;45.308;9.488;2023-07-13T14:49:44;31.40;99.90
35395;DHT22;21500;45.308;9.488;2023-07-13T14:52:23;31.30;99.90
35395;DHT22;21500;45.308;9.488;2023-07-13T14:54:51;31.10;99.90
35395;DHT22;21500;45.308;9.488;2023-07-13T14:57:58;30.90;99.90
35395;DHT22;21500;45.308;9.488;2023-07-13T15:00:31;30.90;99.90
35395;DHT22;21500;45.308;9.488;2023-07-13T15:03:03;31.10;99.90
35395;DHT22;21500;45.308;9.488;2023-07-13T15:05:47;31.20;99.90
35395;DHT22;21500;45.308;9.488;2023-07-13T15:09:26;31.10;99.90
35395;DHT22;21500;45.308;9.488;2023-07-13T15:12:38;31.40;99.90
35395;DHT22;21500;45.308;9.488;2023-07-13T15:15:54;31.10;99.90
35395;DHT22;21500;45.308;9.488;2023-07-13T15:18:23;31.10;99.90
35395;DHT22;21500;45.308;9.488;2023-07-13T15:20:50;31.30;99.90
35395;DHT22;21500;45.308;9.488;2023-07-13T15:23:18;31.00;99.90
35395;DHT22;21500;45.308;9.488;2023-07-13T15:25:45;31.10;99.90
35395;DHT22;21500;45.308;9.488;2023-07-13T15:28:11;31.00;99.90
35395;DHT22;21500;45.308;9.488;2023-07-13T15:30:45;31.10;99.90
35395;DHT22;21500;45.308;9.488;2023-07-13T15:33:21;31.10;99.90
35395;DHT22;21500;45.308;9.488;2023-07-13T15:35:48;31.30;99.90
35395;DHT22;21500;45.308;9.488;2023-07-13T15:38:17;31.40;99.90
35395;DHT22;21500;45.308;9.488;2023-07-13T15:40:43;31.40;99.90
35395;DHT22;21500;45.308;9.488;2023-07-13T15:43:14;31.50;99.90
35395;DHT22;21500;45.308;9.488;2023-07-13T15:45:41;31.50;99.90
35395;DHT22;21500;45.308;9.488;2023-07-13T15:48:16;31.50;99.90
35395;DHT22;21500;45.308;9.488;2023-07-13T15:50:50;31.50;99.90
35395;DHT22;21500;45.308;9.488;2023-07-13T15:55:52;31.70;99.90
35395;DHT22;21500;45.308;9.488;2023-07-13T16:01:11;31.20;99.90
35395;DHT22;21500;45.308;9.488;2023-07-13T16:03:37;31.20;99.90
35395;DHT22;21500;45.308;9.488;2023-07-13T16:06:03;31.10;99.90
35395;DHT22;21500;45.308;9.488;2023-07-13T16:08:32;30.60;99.90
35395;DHT22;21500;45.308;9.488;2023-07-13T16:17:04;30.50;99.90
35395;DHT22;21500;45.308;9.488;2023-07-13T16:19:31;30.40;99.90
35395;DHT22;21500;45.308;9.488;2023-07-13T16:21:59;30.50;99.90
35395;DHT22;21500;45.308;9.488;2023-07-13T16:24:31;30.60;99.90
35395;DHT22;21500;45.308;9.488;2023-07-13T16:26:58;30.50;99.90
35395;DHT22;21500;45.308;9.488;2023-07-13T16:29:29;30.50;99.90
35395;DHT22;21500;45.308;9.488;2023-07-13T16:32:02;30.40;99.90
35395;DHT22;21500;45.308;9.488;2023-07-13T16:34:32;30.40;99.90
35395;DHT22;21500;45.308;9.488;2023-07-13T16:36:59;30.20;99.90
35395;DHT22;21500;45.308;9.488;2023-07-13T16:39:27;30.20;99.90
35395;DHT22;21500;45.308;9.488;2023-07-13T16:41:53;30.50;99.90
35395;DHT22;21500;45.308;9.488;2023-07-13T16:44:21;30.50;99.90
35395;DHT22;21500;45.308;9.488;2023-07-13T16:46:52;30.40;99.90
35395;DHT22;21500;45.308;9.488;2023-07-13T16:51:54;30.10;99.90
35395;DHT22;21500;45.308;9.488;2023-07-13T17:02:37;29.90;99.90
35395;DHT22;21500;45.308;9.488;2023-07-13T17:16:41;30.10;99.90
35395;DHT22;21500;45.308;9.488;2023-07-13T17:19:12;30.00;99.90
35395;DHT22;21500;45.308;9.488;2023-07-13T17:21:52;29.90;99.90
35395;DHT22;21500;45.308;9.488;2023-07-13T17:24:24;29.80;99.90
35395;DHT22;21500;45.308;9.488;2023-07-13T18:01:58;29.10;99.90
35395;DHT22;21500;45.308;9.488;2023-07-13T18:05:00;29.10;99.90
35395;DHT22;21500;45.308;9.488;2023-07-13T18:13:14;29.00;99.90
35395;DHT22;21500;45.308;9.488;2023-07-13T18:37:31;28.90;99.90
35395;DHT22;21500;45.308;9.488;2023-07-13T18:40:35;28.90;99.90
35395;DHT22;21500;45.308;9.488;2023-07-13T18:43:02;28.90;99.90
35395;DHT22;21500;45.308;9.488;2023-07-13T18:45:28;28.80;99.90
35395;DHT22;21500;45.308;9.488;2023-07-13T18:47:55;28.80;99.90
35395;DHT22;21500;45.308;9.488;2023-07-13T18:50:29;28.60;99.90
35395;DHT22;21500;45.308;9.488;2023-07-13T18:52:55;28.60;99.90
35395;DHT22;21500;45.308;9.488;2023-07-13T18:55:22;28.50;99.90
35395;DHT22;21500;45.308;9.488;2023-07-13T18:57:49;28.50;99.90
35395;DHT22;21500;45.308;9.488;2023-07-13T19:00:25;28.50;99.90
35395;DHT22;21500;45.308;9.488;2023-07-13T19:03:07;28.40;99.90
35395;DHT22;21500;45.308;9.488;2023-07-13T19:05:35;28.40;99.90
35395;DHT22;21500;45.308;9.488;2023-07-13T19:08:01;28.40;99.90
35395;DHT22;21500;45.308;9.488;2023-07-13T19:18:37;28.30;99.90
35395;DHT22;21500;45.308;9.488;2023-07-13T19:21:43;28.20;99.90
35395;DHT22;21500;45.308;9.488;2023-07-13T19:24:18;28.20;99.90
35395;DHT22;21500;45.308;9.488;2023-07-13T19:26:45;28.10;99.90
35395;DHT22;21500;45.308;9.488;2023-07-13T19:29:23;28.10;99.90
35395;DHT22;21500;45.308;9.488;2023-07-13T19:50:57;27.90;99.90
35395;DHT22;21500;45.308;9.488;2023-07-13T19:53:23;27.80;99.90
35395;DHT22;21500;45.308;9.488;2023-07-13T19:55:49;27.60;99.90
35395;DHT22;21500;45.308;9.488;2023-07-13T19:58:15;27.40;99.90
35395;DHT22;21500;45.308;9.488;2023-07-13T20:00:42;27.30;99.90
35395;DHT22;21500;45.308;9.488;2023-07-13T20:03:08;27.20;99.90
35395;DHT22;21500;45.308;9.488;2023-07-13T20:05:34;27.20;99.90
35395;DHT22;21500;45.308;9.488;2023-07-13T20:08:10;27.20;99.90
35395;DHT22;21500;45.308;9.488;2023-07-13T20:10:39;27.20;99.90
35395;DHT22;21500;45.308;9.488;2023-07-13T20:13:13;27.10;99.90
35395;DHT22;21500;45.308;9.488;2023-07-13T20:15:46;27.10;99.90
35395;DHT22;21500;45.308;9.488;2023-07-13T20:18:16;27.00;99.90
35395;DHT22;21500;45.308;9.488;2023-07-13T20:20:45;27.00;99.90
35395;DHT22;21500;45.308;9.488;2023-07-13T20:23:19;27.00;99.90
35395;DHT22;21500;45.308;9.488;2023-07-13T20:25:47;26.90;99.90
35395;DHT22;21500;45.308;9.488;2023-07-13T20:28:16;26.90;99.90
35395;DHT22;21500;45.308;9.488;2023-07-13T20:30:47;26.90;99.90
35395;DHT22;21500;45.308;9.488;2023-07-13T20:33:19;26.80;99.90
35395;DHT22;21500;45.308;9.488;2023-07-13T20:35:54;26.80;99.90
35395;DHT22;21500;45.308;9.488;2023-07-13T20:38:22;26.70;99.90
35395;DHT22;21500;45.308;9.488;2023-07-13T20:40:49;26.60;99.90
35395;DHT22;21500;45.308;9.488;2023-07-13T20:43:18;26.60;99.90
35395;DHT22;21500;45.308;9.488;2023-07-13T20:45:46;26.60;99.90
35395;DHT22;21500;45.308;9.488;2023-07-13T20:51:05;26.50;99.90
35395;DHT22;21500;45.308;9.488;2023-07-13T20:53:33;26.50;99.90
35395;DHT22;21500;45.308;9.488;2023-07-13T20:56:00;26.50;99.90
35395;DHT22;21500;45.308;9.488;2023-07-13T20:58:26;26.50;99.90
35395;DHT22;21500;45.308;9.488;2023-07-13T21:00:53;26.50;99.90
35395;DHT22;21500;45.308;9.488;2023-07-13T21:03:27;26.50;99.90
35395;DHT22;21500;45.308;9.488;2023-07-13T21:05:54;26.40;99.90
35395;DHT22;21500;45.308;9.488;2023-07-13T21:08:23;26.40;99.90
35395;DHT22;21500;45.308;9.488;2023-07-13T21:10:52;26.30;99.90
35395;DHT22;21500;45.308;9.488;2023-07-13T21:13:18;26.30;99.90
35395;DHT22;21500;45.308;9.488;2023-07-13T21:15:46;26.30;99.90
35395;DHT22;21500;45.308;9.488;2023-07-13T21:18:18;26.20;99.90
35395;DHT22;21500;45.308;9.488;2023-07-13T21:20:52;26.20;99.90
35395;DHT22;21500;45.308;9.488;2023-07-13T21:23:32;26.30;99.90
35395;DHT22;21500;45.308;9.488;2023-07-13T21:26:00;26.20;99.90
35395;DHT22;21500;45.308;9.488;2023-07-13T21:28:28;26.10;99.90
35395;DHT22;21500;45.308;9.488;2023-07-13T21:30:59;26.10;99.90
35395;DHT22;21500;45.308;9.488;2023-07-13T21:33:26;26.10;99.90
35395;DHT22;21500;45.308;9.488;2023-07-13T21:35:52;26.10;99.90
35395;DHT22;21500;45.308;9.488;2023-07-13T21:38:31;26.10;99.90
35395;DHT22;21500;45.308;9.488;2023-07-13T21:41:03;26.00;99.90
35395;DHT22;21500;45.308;9.488;2023-07-13T21:43:30;26.00;99.90
35395;DHT22;21500;45.308;9.488;2023-07-13T21:45:56;26.00;99.90
35395;DHT22;21500;45.308;9.488;2023-07-13T21:48:22;26.00;99.90
35395;DHT22;21500;45.308;9.488;2023-07-13T21:50:51;26.00;99.90
35395;DHT22;21500;45.308;9.488;2023-07-13T21:53:48;26.00;99.90
35395;DHT22;21500;45.308;9.488;2023-07-13T21:56:15;25.90;99.90
35395;DHT22;21500;45.308;9.488;2023-07-13T21:58:41;25.90;99.90
35395;DHT22;21500;45.308;9.488;2023-07-13T22:01:20;25.90;99.90
35395;DHT22;21500;45.308;9.488;2023-07-13T22:03:54;25.80;99.90
35395;DHT22;21500;45.308;9.488;2023-07-13T22:06:22;25.70;99.90
35395;DHT22;21500;45.308;9.488;2023-07-13T22:08:50;25.70;99.90
35395;DHT22;21500;45.308;9.488;2023-07-13T22:11:23;25.70;99.90
35395;DHT22;21500;45.308;9.488;2023-07-13T22:13:50;25.80;99.90
35395;DHT22;21500;45.308;9.488;2023-07-13T22:16:25;25.70;99.90
35395;DHT22;21500;45.308;9.488;2023-07-13T22:18:54;25.20;99.90
35395;DHT22;21500;45.308;9.488;2023-07-13T22:21:21;25.20;99.90
35395;DHT22;21500;45.308;9.488;2023-07-13T22:23:48;25.10;99.90
35395;DHT22;21500;45.308;9.488;2023-07-13T22:28:58;24.90;99.90
35395;DHT22;21500;45.308;9.488;2023-07-13T22:31:25;24.90;99.90
35395;DHT22;21500;45.308;9.488;2023-07-13T22:33:54;24.90;99.90
35395;DHT22;21500;45.308;9.488;2023-07-13T22:36:25;25.00;99.90
35395;DHT22;21500;45.308;9.488;2023-07-13T22:38:51;25.10;99.90
35395;DHT22;21500;45.308;9.488;2023-07-13T22:41:20;25.10;99.90
35395;DHT22;21500;45.308;9.488;2023-07-13T22:43:47;25.00;99.90
35395;DHT22;21500;45.308;9.488;2023-07-13T22:46:25;25.00;99.90
35395;DHT22;21500;45.308;9.488;2023-07-13T22:48:58;25.00;99.90
35395;DHT22;21500;45.308;9.488;2023-07-13T22:51:26;25.00;99.90
35395;DHT22;21500;45.308;9.488;2023-07-13T22:53:52;25.10;99.90
35395;DHT22;21500;45.308;9.488;2023-07-13T22:56:21;25.10;99.90
35395;DHT22;21500;45.308;9.488;2023-07-13T22:58:46;25.20;99.90
35395;DHT22;21500;45.308;9.488;2023-07-13T23:01:26;25.20;99.90
35395;DHT22;21500;45.308;9.488;2023-07-13T23:03:54;25.10;99.90
35395;DHT22;21500;45.308;9.488;2023-07-13T23:06:43;25.00;99.90
35395;DHT22;21500;45.308;9.488;2023-07-13T23:09:14;24.90;99.90
35395;DHT22;21500;45.308;9.488;2023-07-13T23:11:41;25.00;99.90
35395;DHT22;21500;45.308;9.488;2023-07-13T23:14:06;24.70;99.90
35395;DHT22;21500;45.308;9.488;2023-07-13T23:16:32;24.70;99.90
35395;DHT22;21500;45.308;9.488;2023-07-13T23:18:59;24.60;99.90
35395;DHT22;21500;45.308;9.488;2023-07-13T23:21:26;24.70;99.90
35395;DHT22;21500;45.308;9.488;2023-07-13T23:23:52;24.60;99.90
35395;DHT22;21500;45.308;9.488;2023-07-13T23:26:22;24.60;99.90
35395;DHT22;21500;45.308;9.488;2023-07-13T23:28:49;24.60;99.90
35395;DHT22;21500;45.308;9.488;2023-07-13T23:31:30;24.50;99.90
35395;DHT22;21500;45.308;9.488;2023-07-13T23:34:03;24.50;99.90
35395;DHT22;21500;45.308;9.488;2023-07-13T23:36:30;24.60;99.90
35395;DHT22;21500;45.308;9.488;2023-07-13T23:38:55;24.60;99.90
35395;DHT22;21500;45.308;9.488;2023-07-13T23:41:24;24.60;99.90